Time;durP1;ratioP1;P1;durP2;ratioP2;P2;SDS_P1;SDS_P2;PMS_P1;PMS_P2;Temp;Humidity;BMP_temperature;BMP_pressure;BME280_temperature;BME280_humidity;BME280_pressure;Samples;Min_cycle;Max_cycle;Signal;HPM_P1;HPM_P2
2023/12/15 00:00:21;;;;;;;13.60;6.88;;;11.80;99.90;;;;;;7383394;19;20328;-73
2023/12/15 00:02:49;;;;;;;16.13;6.20;;;11.90;99.90;;;;;;7383628;19;20023;-72
2023/12/15 00:05:21;;;;;;;14.57;7.20;;;11.70;99.90;;;;;;7383456;19;20007;-73
2023/12/15 00:07:49;;;;;;;;;;;11.70;99.90;;;;;;7382993;19;20023;-72
2023/12/15 00:10:19;;;;;;;12.32;6.78;;;11.80;99.90;;;;;;7403459;19;19919;-73
2023/12/15 00:12:47;;;;;;;9.80;5.90;;;11.80;99.90;;;;;;7382334;19;20036;-73
2023/12/15 00:15:16;;;;;;;11.02;5.80;;;11.80;99.90;;;;;;7381971;19;20086;-73
2023/12/15 00:17:45;;;;;;;15.07;6.18;;;11.80;99.90;;;;;;7383067;19;20062;-73
2023/12/15 00:20:14;;;;;;;7.40;5.25;;;11.80;99.90;;;;;;7383089;19;20364;-74
2023/12/15 00:22:45;;;;;;;12.25;6.03;;;11.80;99.90;;;;;;7404395;19;20031;-73
2023/12/15 00:25:14;;;;;;;12.35;6.03;;;11.80;99.90;;;;;;7382336;19;20054;-73
2023/12/15 00:27:43;;;;;;;11.27;5.57;;;11.90;99.90;;;;;;7385510;19;20007;-73
2023/12/15 00:30:13;;;;;;;10.20;6.50;;;11.90;99.90;;;;;;7382496;19;20062;-73
2023/12/15 00:32:41;;;;;;;15.25;6.32;;;12.00;99.90;;;;;;7382785;19;20070;-73
2023/12/15 00:35:10;;;;;;;13.32;6.20;;;12.00;99.90;;;;;;7381109;19;20003;-72
2023/12/15 00:37:39;;;;;;;11.55;5.60;;;12.00;99.90;;;;;;7403832;19;20036;-72
2023/12/15 00:40:13;;;;;;;11.32;5.88;;;12.00;99.90;;;;;;7381776;19;20062;-73
2023/12/15 00:42:41;;;;;;;12.02;5.68;;;12.00;99.90;;;;;;7381577;19;20429;-72
2023/12/15 00:45:11;;;;;;;11.30;6.22;;;12.00;99.90;;;;;;7381989;19;20070;-72
2023/12/15 00:47:40;;;;;;;8.20;5.72;;;12.00;99.90;;;;;;7382496;19;20072;-72
2023/12/15 00:50:11;;;;;;;12.45;6.50;;;12.00;99.90;;;;;;7381745;19;20056;-72
2023/12/15 00:52:42;;;;;;;12.82;6.47;;;12.00;99.90;;;;;;7403717;19;20040;-72
2023/12/15 00:55:14;;;;;;;14.10;7.15;;;12.00;99.90;;;;;;7383246;19;20007;-73
2023/12/15 00:57:42;;;;;;;;;;;12.00;99.90;;;;;;7381621;19;20007;-73
2023/12/15 01:00:12;;;;;;;12.20;6.40;;;12.10;99.90;;;;;;7381512;19;19979;-73
2023/12/15 01:02:41;;;;;;;12.55;6.72;;;12.00;99.90;;;;;;7382128;19;20012;-73
2023/12/15 01:05:10;;;;;;;18.27;7.82;;;12.00;99.90;;;;;;7381245;19;20078;-73
2023/12/15 01:07:39;;;;;;;21.95;9.27;;;12.00;99.90;;;;;;7402514;19;20070;-73
2023/12/15 01:10:08;;;;;;;22.73;9.07;;;11.90;99.90;;;;;;7378649;19;20071;-73
2023/12/15 01:12:39;;;;;;;18.23;9.30;;;11.90;99.90;;;;;;7380547;19;20058;-73
2023/12/15 01:15:09;;;;;;;19.38;9.50;;;11.90;99.90;;;;;;7380606;19;20330;-73
2023/12/15 01:17:38;;;;;;;23.33;9.80;;;11.90;99.90;;;;;;7381657;19;20114;-73
2023/12/15 01:20:10;;;;;;;19.27;10.45;;;11.90;99.90;;;;;;7381002;19;20066;-74
2023/12/15 01:22:38;;;;;;;24.83;10.77;;;11.90;99.90;;;;;;7402696;19;20006;-73
2023/12/15 01:25:08;;;;;;;29.92;11.57;;;11.90;99.90;;;;;;7380847;19;20007;-72
2023/12/15 01:27:42;;;;;;;28.55;11.63;;;11.90;99.90;;;;;;7380774;19;20465;-73
2023/12/15 01:30:11;;;;;;;24.67;11.48;;;11.90;99.90;;;;;;7381559;19;20007;-73
2023/12/15 01:32:40;;;;;;;24.30;11.70;;;12.00;99.90;;;;;;7381340;19;20307;-73
2023/12/15 01:35:09;;;;;;;22.95;10.73;;;12.00;99.90;;;;;;7379774;19;20011;-73
2023/12/15 01:37:38;;;;;;;29.60;11.88;;;12.00;99.90;;;;;;7402243;19;20058;-74
2023/12/15 01:40:07;;;;;;;25.75;11.23;;;12.10;99.90;;;;;;7379667;19;20007;-73
2023/12/15 01:42:38;;;;;;;25.65;10.88;;;12.10;99.90;;;;;;7379994;19;20013;-73
2023/12/15 01:45:08;;;;;;;29.30;11.65;;;12.10;99.90;;;;;;7380423;19;20014;-72
2023/12/15 01:47:37;;;;;;;22.75;10.85;;;12.10;99.90;;;;;;7379946;19;20011;-73
2023/12/15 01:50:08;;;;;;;22.90;11.25;;;12.10;99.90;;;;;;7380604;19;20074;-73
2023/12/15 01:52:36;;;;;;;25.73;11.30;;;12.20;99.90;;;;;;7401606;19;20296;-74
2023/12/15 01:55:06;;;;;;;34.38;12.05;;;12.20;99.90;;;;;;7377799;19;20086;-74
2023/12/15 01:57:34;;;;;;;30.60;12.57;;;12.10;99.90;;;;;;7379344;19;20003;-74
2023/12/15 02:00:09;;;;;;;27.95;12.63;;;12.10;99.90;;;;;;7380132;19;20077;-73
2023/12/15 02:02:37;;;;;;;26.17;12.40;;;12.10;99.90;;;;;;7379596;19;20366;-74
2023/12/15 02:05:07;;;;;;;27.50;13.07;;;12.20;99.90;;;;;;7379198;19;20028;-73
2023/12/15 02:07:36;;;;;;;32.88;13.73;;;12.20;99.90;;;;;;7401496;19;20002;-74
2023/12/15 02:10:05;;;;;;;30.98;13.20;;;12.20;99.90;;;;;;7378582;19;20023;-74
2023/12/15 02:12:36;;;;;;;29.38;12.93;;;12.20;99.90;;;;;;7378859;19;20007;-73
2023/12/15 02:15:10;;;;;;;25.98;13.65;;;12.20;99.90;;;;;;7379306;19;20430;-74
2023/12/15 02:17:39;;;;;;;27.10;13.23;;;12.20;99.90;;;;;;7379419;19;20011;-74
2023/12/15 02:20:09;;;;;;;36.78;13.73;;;12.30;99.90;;;;;;7379456;19;20094;-74
2023/12/15 02:22:41;;;;;;;38.50;13.68;;;12.30;99.90;;;;;;7408541;19;20358;-73
2023/12/15 02:25:10;;;;;;;39.92;14.77;;;12.30;99.90;;;;;;7385690;19;20067;-73
2023/12/15 02:27:40;;;;;;;26.10;13.35;;;12.20;99.90;;;;;;7385541;19;20373;-74
2023/12/15 02:30:10;;;;;;;34.38;13.23;;;12.20;99.90;;;;;;7386554;19;20066;-73
2023/12/15 02:32:39;;;;;;;33.58;14.48;;;12.30;99.90;;;;;;7385974;19;20409;-74
2023/12/15 02:35:08;;;;;;;29.40;13.02;;;12.30;99.90;;;;;;7384890;19;20010;-74
2023/12/15 02:37:36;;;;;;;39.33;14.48;;;12.30;99.90;;;;;;7408566;19;20038;-72
2023/12/15 02:40:09;;;;;;;37.30;14.77;;;12.30;99.90;;;;;;7385248;19;20074;-72
2023/12/15 02:42:38;;;;;;;27.23;14.07;;;12.30;99.90;;;;;;7385764;19;20093;-73
2023/12/15 02:45:08;;;;;;;27.27;13.75;;;12.30;99.90;;;;;;7386257;19;20054;-73
2023/12/15 02:47:37;;;;;;;32.78;14.50;;;12.30;99.90;;;;;;7387310;19;20023;-73
2023/12/15 02:50:06;;;;;;;29.15;14.05;;;12.30;99.90;;;;;;7385420;19;20361;-73
2023/12/15 02:52:34;;;;;;;30.55;12.77;;;12.30;99.90;;;;;;7407643;19;20031;-72
2023/12/15 02:55:03;;;;;;;30.98;13.45;;;12.30;99.90;;;;;;7383697;19;20349;-72
2023/12/15 02:57:35;;;;;;;28.27;13.75;;;12.30;99.90;;;;;;7385587;19;20023;-73
2023/12/15 03:00:03;;;;;;;29.67;12.77;;;12.20;99.90;;;;;;7385585;19;20370;-72
2023/12/15 03:02:32;;;;;;;33.20;13.32;;;12.20;99.90;;;;;;7385600;19;20418;-72
2023/12/15 03:05:01;;;;;;;26.02;12.65;;;12.20;99.90;;;;;;7385605;19;20091;-73
2023/12/15 03:07:30;;;;;;;31.48;13.75;;;12.20;99.90;;;;;;7406841;19;20010;-73
2023/12/15 03:09:58;;;;;;;26.85;13.20;;;12.20;99.90;;;;;;7384440;19;20015;-73
2023/12/15 03:12:28;;;;;;;32.17;12.95;;;12.20;99.90;;;;;;7385212;19;20003;-73
2023/12/15 03:14:59;;;;;;;29.20;13.25;;;12.20;99.90;;;;;;7382738;19;20002;-73
2023/12/15 03:17:30;;;;;;;26.40;13.57;;;12.20;99.90;;;;;;7385454;19;20007;-73
2023/12/15 03:19:58;;;;;;;29.17;13.10;;;12.20;99.90;;;;;;7385165;19;20011;-73
2023/12/15 03:22:27;;;;;;;26.98;13.15;;;12.10;99.90;;;;;;7406245;19;20256;-73
2023/12/15 03:24:56;;;;;;;26.48;13.60;;;12.10;99.90;;;;;;7383970;19;20003;-73
2023/12/15 03:27:24;;;;;;;34.80;14.45;;;12.10;99.90;;;;;;7385320;19;20070;-72
2023/12/15 03:29:53;;;;;;;33.53;14.38;;;12.00;99.90;;;;;;7389084;19;20014;-73
2023/12/15 03:32:24;;;;;;;33.45;13.60;;;12.10;99.90;;;;;;7383995;19;20055;-73
2023/12/15 03:34:53;;;;;;;27.42;13.40;;;12.10;99.90;;;;;;7384974;19;20073;-73
2023/12/15 03:37:22;;;;;;;27.70;12.90;;;12.00;99.90;;;;;;7406108;19;20023;-73
2023/12/15 03:39:50;;;;;;;38.38;13.65;;;12.10;99.90;;;;;;7384122;19;20021;-72
2023/12/15 03:42:19;;;;;;;29.67;12.93;;;12.10;99.90;;;;;;7384205;19;20079;-72
2023/12/15 03:44:47;;;;;;;28.92;13.10;;;12.00;99.90;;;;;;7383906;19;20629;-73
2023/12/15 03:47:16;;;;;;;30.00;13.98;;;12.00;99.90;;;;;;7384333;19;20023;-73
2023/12/15 03:49:48;;;;;;;21.67;12.93;;;12.00;99.90;;;;;;7405113;19;20007;-73
2023/12/15 03:52:16;;;;;;;27.00;13.85;;;12.00;99.90;;;;;;7383414;19;20025;-72
2023/12/15 03:54:45;;;;;;;27.15;13.68;;;12.00;99.90;;;;;;7382310;19;20094;-72
2023/12/15 03:57:14;;;;;;;29.25;13.02;;;12.10;99.90;;;;;;7383332;19;20254;-72
2023/12/15 03:59:42;;;;;;;22.88;12.95;;;12.10;99.90;;;;;;7383633;19;20003;-72
2023/12/15 04:02:14;;;;;;;29.88;13.88;;;12.10;99.90;;;;;;7384088;19;20024;-73
2023/12/15 04:04:43;;;;;;;29.83;12.95;;;12.10;99.90;;;;;;7404552;19;20092;-72
2023/12/15 04:07:15;;;;;;;38.55;14.70;;;12.10;99.90;;;;;;7382560;19;20003;-73
2023/12/15 04:09:43;;;;;;;34.25;14.77;;;12.10;99.90;;;;;;7383215;19;20598;-72
2023/12/15 04:12:12;;;;;;;25.70;14.15;;;12.00;99.90;;;;;;7383218;19;20099;-73
2023/12/15 04:14:41;;;;;;;31.35;13.07;;;12.10;99.90;;;;;;7382979;19;20070;-72
2023/12/15 04:17:09;;;;;;;28.02;12.95;;;12.00;99.90;;;;;;7383185;19;20020;-73
2023/12/15 04:19:38;;;;;;;26.88;13.23;;;12.00;99.90;;;;;;7404612;19;20078;-73
2023/12/15 04:22:07;;;;;;;27.08;12.73;;;12.00;99.90;;;;;;7382346;19;20426;-72
2023/12/15 04:24:38;;;;;;;26.50;12.68;;;11.90;99.90;;;;;;7382226;19;20010;-72
2023/12/15 04:27:08;;;;;;;25.25;12.07;;;11.90;99.90;;;;;;7382716;19;20007;-72
2023/12/15 04:29:37;;;;;;;32.70;13.55;;;11.90;99.90;;;;;;7383135;19;20298;-72
2023/12/15 04:32:06;;;;;;;24.17;12.60;;;11.90;99.90;;;;;;7382336;19;20075;-73
2023/12/15 04:34:37;;;;;;;23.65;12.35;;;12.00;99.90;;;;;;7403053;19;20383;-73
2023/12/15 04:37:06;;;;;;;31.73;12.50;;;12.00;99.90;;;;;;7381796;19;20003;-73
2023/12/15 04:39:36;;;;;;;25.73;11.60;;;12.10;99.90;;;;;;7383692;19;20330;-72
2023/12/15 04:42:07;;;;;;;21.20;12.13;;;12.10;99.90;;;;;;7382032;19;20007;-72
2023/12/15 04:44:37;;;;;;;25.15;12.30;;;12.10;99.90;;;;;;7379640;19;20002;-72
2023/12/15 04:47:06;;;;;;;24.85;11.98;;;12.00;99.90;;;;;;7381666;19;20007;-73
2023/12/15 04:49:35;;;;;;;26.38;12.40;;;12.10;99.90;;;;;;7403677;19;20010;-72
2023/12/15 04:52:04;;;;;;;29.23;12.57;;;12.10;99.90;;;;;;7381145;19;20006;-73
2023/12/15 04:54:32;;;;;;;35.53;12.40;;;12.10;99.90;;;;;;7381387;19;20007;-73
2023/12/15 04:57:01;;;;;;;27.10;12.18;;;12.10;99.90;;;;;;7381882;19;20070;-72
2023/12/15 04:59:39;;;;;;;25.92;12.85;;;12.10;99.90;;;;;;7382091;19;20006;-72
2023/12/15 05:02:08;;;;;;;26.75;13.23;;;12.10;99.90;;;;;;7381754;19;20011;-73
2023/12/15 05:04:37;;;;;;;22.70;12.02;;;12.20;99.90;;;;;;7402789;19;20017;-73
2023/12/15 05:07:06;;;;;;;25.88;12.65;;;12.20;99.90;;;;;;7380783;19;20058;-72
2023/12/15 05:09:35;;;;;;;26.60;12.98;;;12.20;99.90;;;;;;7380949;19;20235;-73
2023/12/15 05:12:03;;;;;;;26.88;13.27;;;12.20;99.90;;;;;;7381339;19;20261;-73
2023/12/15 05:14:35;;;;;;;25.95;12.80;;;12.20;99.90;;;;;;7381215;19;20075;-73
2023/12/15 05:17:03;;;;;;;29.08;13.02;;;12.20;99.90;;;;;;7379175;19;20002;-73
2023/12/15 05:19:32;;;;;;;24.00;12.85;;;12.20;99.90;;;;;;7402853;19;20365;-73
2023/12/15 05:22:01;;;;;;;20.98;12.52;;;12.20;99.90;;;;;;7380189;19;20007;-73
2023/12/15 05:24:31;;;;;;;26.60;13.85;;;12.20;99.90;;;;;;7380665;19;20015;-73
2023/12/15 05:27:00;;;;;;;26.33;12.45;;;12.20;99.90;;;;;;7381357;19;20010;-73
2023/12/15 05:29:29;;;;;;;25.60;12.40;;;12.20;99.90;;;;;;7380913;19;20006;-73
2023/12/15 05:32:00;;;;;;;23.83;11.95;;;12.10;99.90;;;;;;7402755;19;20024;-73
2023/12/15 05:34:30;;;;;;;21.85;11.45;;;12.20;99.90;;;;;;7381448;19;20002;-73
2023/12/15 05:36:59;;;;;;;28.70;11.60;;;12.10;99.90;;;;;;7379893;19;20074;-73
2023/12/15 05:39:27;;;;;;;35.47;14.02;;;12.10;99.90;;;;;;7380158;19;20425;-72
2023/12/15 05:41:56;;;;;;;25.17;12.32;;;12.10;99.90;;;;;;7380742;19;20003;-73
2023/12/15 05:44:24;;;;;;;24.80;11.82;;;12.10;99.90;;;;;;7379805;19;20034;-73
2023/12/15 05:46:53;;;;;;;32.47;13.93;;;12.10;99.90;;;;;;7401429;19;20327;-73
2023/12/15 05:49:25;;;;;;;41.78;14.90;;;12.10;99.90;;;;;;7379541;19;20062;-73
2023/12/15 05:51:53;;;;;;;;;;;12.10;99.90;;;;;;7379984;19;20385;-73
2023/12/15 05:54:22;;;;;;;578.45;43.42;;;12.10;99.90;;;;;;7380106;19;19910;-73
2023/12/15 05:56:50;;;;;;;31.40;13.35;;;12.10;99.90;;;;;;7377962;19;20011;-73
2023/12/15 05:59:19;;;;;;;30.13;13.27;;;12.10;99.90;;;;;;7379408;19;20016;-73
2023/12/15 06:01:47;;;;;;;29.17;13.35;;;12.10;99.90;;;;;;7401542;19;20028;-73
2023/12/15 06:04:16;;;;;;;31.83;13.50;;;12.10;99.90;;;;;;7378927;19;20011;-73
2023/12/15 06:06:47;;;;;;;29.05;12.70;;;12.10;99.90;;;;;;7379134;19;20420;-73
2023/12/15 06:09:16;;;;;;;37.35;12.20;;;12.10;99.90;;;;;;7379574;19;20006;-73
2023/12/15 06:11:45;;;;;;;26.17;12.10;;;12.10;99.90;;;;;;7379232;19;20023;-73
2023/12/15 06:14:14;;;;;;;30.80;14.30;;;12.10;99.90;;;;;;7379436;19;20062;-73
2023/12/15 06:16:42;;;;;;;28.75;14.48;;;12.10;99.90;;;;;;7399460;19;20410;-73
2023/12/15 06:19:11;;;;;;;32.97;14.38;;;12.10;99.90;;;;;;7378428;19;20019;-73
2023/12/15 06:21:40;;;;;;;31.10;14.40;;;12.10;99.90;;;;;;7378905;19;20285;-73
2023/12/15 06:24:11;;;;;;;29.52;14.25;;;12.10;99.90;;;;;;7379019;19;20010;-73
2023/12/15 06:26:39;;;;;;;27.60;14.43;;;12.10;99.90;;;;;;7379404;19;20371;-74
2023/12/15 06:29:08;;;;;;;33.30;16.58;;;12.10;99.90;;;;;;7379379;19;20094;-73
2023/12/15 06:31:37;;;;;;;31.92;17.00;;;12.00;99.90;;;;;;7404872;19;20378;-73
2023/12/15 06:34:06;;;;;;;31.15;17.08;;;12.00;99.90;;;;;;7379873;19;20023;-73
2023/12/15 06:36:34;;;;;;;39.97;18.33;;;12.00;99.90;;;;;;7379191;19;20003;-73
2023/12/15 06:39:03;;;;;;;32.95;17.63;;;12.00;99.90;;;;;;7379682;19;20010;-73
2023/12/15 06:41:36;;;;;;;38.95;16.48;;;12.00;99.90;;;;;;7379015;19;20020;-75
2023/12/15 06:44:05;;;;;;;34.42;17.52;;;12.00;99.90;;;;;;7378731;19;20272;-74
2023/12/15 06:46:36;;;;;;;27.55;16.17;;;12.00;99.90;;;;;;7400373;19;20027;-72
2023/12/15 06:49:05;;;;;;;;;;;12.00;99.90;;;;;;7379596;19;20003;-73
2023/12/15 06:51:36;;;;;;;34.83;16.70;;;12.10;99.90;;;;;;7380415;19;19915;-73
2023/12/15 06:54:05;;;;;;;37.17;17.48;;;12.00;99.90;;;;;;7379327;19;20015;-72
2023/12/15 06:56:40;;;;;;;38.40;16.45;;;12.00;99.90;;;;;;7377758;19;20007;-73
2023/12/15 06:59:08;;;;;;;34.80;16.75;;;12.00;99.90;;;;;;7379601;19;20005;-73
2023/12/15 07:01:37;;;;;;;39.40;18.35;;;12.00;99.90;;;;;;7399590;19;20011;-73
2023/12/15 07:04:07;;;;;;;38.70;19.55;;;11.70;99.90;;;;;;7377535;19;20003;-73
2023/12/15 07:06:37;;;;;;;43.25;21.17;;;11.80;99.90;;;;;;7377523;19;20216;-73
2023/12/15 07:09:05;;;;;;;49.25;22.08;;;11.70;99.90;;;;;;7383847;19;19999;-73
2023/12/15 07:11:37;;;;;;;47.55;21.67;;;11.70;99.90;;;;;;7385663;19;20074;-73
2023/12/15 07:14:05;;;;;;;37.58;19.70;;;11.70;99.90;;;;;;7385184;19;20015;-73
2023/12/15 07:16:34;;;;;;;46.03;21.70;;;11.80;99.90;;;;;;7405006;19;20375;-73
2023/12/15 07:19:02;;;;;;;36.78;20.23;;;11.80;99.90;;;;;;7384478;19;20078;-73
2023/12/15 07:21:31;;;;;;;44.45;20.73;;;11.80;99.90;;;;;;7384326;19;20020;-73
2023/12/15 07:24:00;;;;;;;47.13;18.42;;;11.90;99.90;;;;;;7384712;19;20002;-74
2023/12/15 07:26:28;;;;;;;37.65;18.92;;;11.90;99.90;;;;;;7384981;19;20062;-73
2023/12/15 07:29:00;;;;;;;36.30;18.92;;;11.90;99.90;;;;;;7410551;19;20027;-72
2023/12/15 07:31:28;;;;;;;43.00;19.33;;;12.00;99.90;;;;;;7386091;19;20038;-73
2023/12/15 07:33:57;;;;;;;37.03;18.48;;;12.00;99.90;;;;;;7385538;19;20023;-74
2023/12/15 07:36:26;;;;;;;36.38;18.63;;;12.00;99.90;;;;;;7383295;19;20365;-74
2023/12/15 07:38:54;;;;;;;36.30;18.15;;;12.10;99.90;;;;;;7384658;19;20018;-74
2023/12/15 07:41:23;;;;;;;40.00;18.73;;;12.10;99.90;;;;;;7386781;19;20355;-75
2023/12/15 07:43:51;;;;;;;43.47;19.05;;;12.10;99.90;;;;;;7409730;19;20018;-74
2023/12/15 07:46:27;;;;;;;36.60;18.77;;;12.10;99.90;;;;;;7387099;19;20362;-74
2023/12/15 07:48:55;;;;;;;39.00;18.45;;;12.10;99.90;;;;;;7384768;19;20074;-75
2023/12/15 07:51:24;;;;;;;37.65;19.27;;;12.10;99.90;;;;;;7383889;19;20007;-75
2023/12/15 07:53:53;;;;;;;43.00;21.23;;;12.10;99.90;;;;;;7384553;19;20003;-75
2023/12/15 07:56:23;;;;;;;44.22;19.38;;;12.20;99.90;;;;;;7382968;19;20040;-74
2023/12/15 07:58:52;;;;;;;40.63;19.20;;;12.20;99.90;;;;;;7404280;19;20364;-73
2023/12/15 08:01:24;;;;;;;34.60;18.73;;;12.20;99.90;;;;;;7383798;19;20010;-75
2023/12/15 08:03:53;;;;;;;39.55;18.83;;;12.10;99.90;;;;;;7383620;19;20414;-74
2023/12/15 08:06:22;;;;;;;43.25;18.50;;;12.10;99.90;;;;;;7384017;19;20016;-74
2023/12/15 08:08:52;;;;;;;40.67;19.17;;;12.10;99.90;;;;;;7384224;19;20276;-77
2023/12/15 08:11:23;;;;;;;37.65;18.80;;;12.10;99.90;;;;;;7384255;19;20007;-77
2023/12/15 08:13:52;;;;;;;40.47;19.40;;;12.10;99.90;;;;;;7404456;19;20013;-77
2023/12/15 08:16:23;;;;;;;42.65;19.38;;;12.10;99.90;;;;;;7382758;19;20020;-77
2023/12/15 08:18:51;;;;;;;37.67;18.63;;;12.20;99.90;;;;;;7383034;19;20003;-77
2023/12/15 08:21:20;;;;;;;48.90;17.83;;;12.20;99.90;;;;;;7383840;19;20011;-74
2023/12/15 08:23:49;;;;;;;41.38;19.38;;;12.10;99.90;;;;;;7387266;19;20023;-75
2023/12/15 08:26:25;;;;;;;38.95;18.77;;;12.20;99.90;;;;;;7385958;19;20010;-74
2023/12/15 08:28:54;;;;;;;35.90;19.48;;;12.20;99.90;;;;;;7405180;19;20010;-75
2023/12/15 08:31:26;;;;;;;37.97;18.55;;;12.20;99.90;;;;;;7382003;19;20006;-76
2023/12/15 08:33:55;;;;;;;38.15;18.55;;;12.20;99.90;;;;;;7382336;19;20023;-76
2023/12/15 08:36:26;;;;;;;48.00;20.27;;;12.20;99.90;;;;;;7384441;19;20064;-75
2023/12/15 08:38:55;;;;;;;45.03;19.35;;;12.20;99.90;;;;;;7386778;19;20017;-76
2023/12/15 08:41:24;;;;;;;42.67;18.05;;;12.30;99.90;;;;;;7385332;19;20082;-75
2023/12/15 08:43:52;;;;;;;37.00;18.13;;;12.30;99.90;;;;;;7403318;19;20007;-75
2023/12/15 08:46:22;;;;;;;42.25;19.75;;;12.30;99.90;;;;;;7381260;19;20015;-74
2023/12/15 08:48:53;;;;;;;44.05;20.27;;;12.30;99.90;;;;;;7381032;19;20421;-74
2023/12/15 08:51:22;;;;;;;;;;;12.30;99.90;;;;;;7382842;19;20007;-76
2023/12/15 08:53:50;;;;;;;44.63;19.75;;;12.40;99.90;;;;;;7382475;19;19911;-76
2023/12/15 08:56:19;;;;;;;37.10;19.63;;;12.30;99.90;;;;;;7381638;19;20023;-75
2023/12/15 08:58:47;;;;;;;48.35;22.08;;;12.40;99.90;;;;;;7403560;19;20010;-75
2023/12/15 09:01:16;;;;;;;53.17;23.83;;;12.40;99.90;;;;;;7381026;19;20066;-75
2023/12/15 09:03:45;;;;;;;72.45;36.00;;;12.40;99.90;;;;;;7380892;19;20003;-74
2023/12/15 09:06:16;;;;;;;93.80;45.13;;;12.40;99.90;;;;;;7381888;19;20078;-74
2023/12/15 09:08:45;;;;;;;94.70;46.00;;;12.40;99.90;;;;;;7381622;19;20009;-75
2023/12/15 09:11:14;;;;;;;87.10;40.83;;;12.50;99.90;;;;;;7381522;19;20011;-77
2023/12/15 09:13:42;;;;;;;79.28;36.08;;;12.50;99.90;;;;;;7404093;19;20009;-75
2023/12/15 09:16:11;;;;;;;64.85;31.75;;;12.60;99.90;;;;;;7380489;19;20070;-76
2023/12/15 09:18:40;;;;;;;61.15;31.02;;;12.60;99.90;;;;;;7381520;19;20028;-75
2023/12/15 09:21:08;;;;;;;54.65;24.42;;;12.60;99.90;;;;;;7381865;19;20010;-76
2023/12/15 09:23:40;;;;;;;58.10;24.80;;;12.60;99.90;;;;;;7381291;19;20498;-76
2023/12/15 09:26:08;;;;;;;;;;;12.60;99.90;;;;;;7382475;19;20011;-76
2023/12/15 09:28:37;;;;;;;52.17;21.63;;;12.70;99.90;;;;;;7402493;19;20193;-75
2023/12/15 09:31:06;;;;;;;49.28;21.83;;;12.70;99.90;;;;;;7378547;19;20026;-76
2023/12/15 09:33:35;;;;;;;44.50;22.08;;;12.70;99.90;;;;;;7384775;19;20358;-76
2023/12/15 09:36:03;;;;;;;43.22;21.38;;;12.70;99.90;;;;;;7384699;19;20015;-77
2023/12/15 09:38:32;;;;;;;42.83;21.08;;;12.70;99.90;;;;;;7384711;19;20014;-76
2023/12/15 09:41:03;;;;;;;44.15;20.95;;;12.70;99.90;;;;;;7403728;19;20020;-76
2023/12/15 09:43:32;;;;;;;49.60;22.08;;;12.80;99.90;;;;;;7380281;19;20002;-73
2023/12/15 09:46:02;;;;;;;43.97;21.25;;;12.80;99.90;;;;;;7379528;19;20024;-74
2023/12/15 09:48:30;;;;;;;41.22;19.58;;;12.80;99.90;;;;;;7380046;19;20373;-74
2023/12/15 09:51:05;;;;;;;43.40;20.33;;;12.80;99.90;;;;;;7380820;19;20003;-74
2023/12/15 09:53:37;;;;;;;47.10;21.42;;;12.80;99.90;;;;;;7385352;19;20014;-73
2023/12/15 09:56:09;;;;;;;43.70;17.70;;;12.90;99.90;;;;;;7384156;19;20024;-74
2023/12/15 09:58:39;;;;;;;37.10;19.08;;;12.90;99.90;;;;;;7402574;19;20011;-74
2023/12/15 10:01:08;;;;;;;42.70;17.90;;;12.90;99.90;;;;;;7384178;19;20003;-74
2023/12/15 10:03:37;;;;;;;43.22;18.23;;;13.00;99.90;;;;;;7383085;19;19999;-74
2023/12/15 10:06:06;;;;;;;38.70;18.65;;;13.00;99.90;;;;;;7380539;19;20007;-74
2023/12/15 10:08:42;;;;;;;40.50;17.77;;;13.00;99.90;;;;;;7380129;19;20097;-74
2023/12/15 10:11:14;;;;;;;33.97;17.02;;;13.00;99.90;;;;;;7379449;19;20358;-73
2023/12/15 10:13:42;;;;;;;;;;;13.00;99.90;;;;;;7402678;19;20315;-74
2023/12/15 10:16:12;;;;;;;38.05;17.10;;;13.00;99.90;;;;;;7380382;19;20215;-75
2023/12/15 10:18:41;;;;;;;46.20;18.85;;;13.10;99.90;;;;;;7379506;19;20034;-75
2023/12/15 10:21:10;;;;;;;31.90;16.73;;;13.10;99.90;;;;;;7379283;19;20342;-75
2023/12/15 10:23:39;;;;;;;42.05;18.67;;;13.10;99.90;;;;;;7379660;19;20011;-74
2023/12/15 10:26:08;;;;;;;41.17;19.38;;;13.10;99.90;;;;;;7379662;19;20067;-74
2023/12/15 10:28:42;;;;;;;41.33;19.63;;;13.10;99.90;;;;;;7400779;19;20235;-74
2023/12/15 10:31:11;;;;;;;45.58;18.27;;;13.10;99.90;;;;;;7379261;19;20006;-74
2023/12/15 10:33:39;;;;;;;47.13;17.67;;;13.10;99.90;;;;;;7379240;19;20013;-74
2023/12/15 10:36:12;;;;;;;34.53;17.75;;;13.10;99.90;;;;;;7378611;19;20321;-74
2023/12/15 10:38:41;;;;;;;36.67;18.10;;;13.10;99.90;;;;;;7377661;19;20247;-75
2023/12/15 10:41:11;;;;;;;41.10;16.40;;;13.10;99.90;;;;;;7378804;19;20098;-75
2023/12/15 10:43:44;;;;;;;36.28;15.88;;;13.10;99.90;;;;;;7404955;19;20021;-71
2023/12/15 10:46:14;;;;;;;33.05;16.08;;;13.10;99.90;;;;;;7385551;19;20031;-72
2023/12/15 10:48:45;;;;;;;34.88;16.13;;;13.20;99.90;;;;;;7385790;19;20008;-72
2023/12/15 10:51:15;;;;;;;34.40;17.23;;;13.20;99.90;;;;;;7384345;19;19999;-73
2023/12/15 10:53:44;;;;;;;42.72;16.70;;;13.20;99.90;;;;;;7386110;19;20009;-72
2023/12/15 10:56:15;;;;;;;42.78;17.98;;;13.20;99.90;;;;;;7385481;19;20062;-73
2023/12/15 10:58:47;;;;;;;31.20;15.30;;;13.30;99.90;;;;;;7404857;19;20694;-72
2023/12/15 11:01:16;;;;;;;38.88;16.33;;;13.30;99.90;;;;;;7385294;19;20070;-72
2023/12/15 11:03:45;;;;;;;33.90;15.25;;;13.30;99.90;;;;;;7385424;19;20003;-73
2023/12/15 11:06:14;;;;;;;32.90;14.52;;;13.20;99.90;;;;;;7385912;19;20019;-73
2023/12/15 11:08:42;;;;;;;32.17;14.70;;;13.30;99.90;;;;;;7387147;19;20010;-76
2023/12/15 11:11:23;;;;;;;40.72;14.68;;;13.40;99.90;;;;;;7386088;19;20089;-74
2023/12/15 11:14:01;;;;;;;34.17;15.00;;;13.40;99.90;;;;;;7411335;19;20006;-75
2023/12/15 11:16:32;;;;;;;30.05;14.23;;;13.40;99.90;;;;;;7385563;19;20058;-77
2023/12/15 11:19:02;;;;;;;36.63;15.43;;;13.30;99.90;;;;;;7386478;19;19999;-78
2023/12/15 11:21:32;;;;;;;39.25;14.55;;;13.30;99.90;;;;;;7388185;19;20006;-77
2023/12/15 11:24:03;;;;;;;34.38;16.50;;;13.20;99.90;;;;;;7388268;19;20075;-73
2023/12/15 11:26:33;;;;;;;30.85;15.70;;;13.20;99.90;;;;;;7385485;19;20006;-75
2023/12/15 11:29:09;;;;;;;42.08;16.90;;;13.30;99.90;;;;;;7406710;19;20020;-73
2023/12/15 11:31:40;;;;;;;42.40;18.15;;;13.10;99.90;;;;;;7384774;19;20322;-77
2023/12/15 11:34:10;;;;;;;34.40;16.90;;;13.00;99.90;;;;;;7384296;19;20417;-77
2023/12/15 11:36:44;;;;;;;39.35;17.50;;;13.00;99.90;;;;;;7384618;19;20011;-77
2023/12/15 11:39:14;;;;;;;39.28;16.20;;;13.00;99.90;;;;;;7383771;19;20013;-75
2023/12/15 11:41:44;;;;;;;34.03;16.75;;;13.10;99.90;;;;;;7384621;19;20006;-74
2023/12/15 11:44:15;;;;;;;34.78;16.25;;;13.20;99.90;;;;;;7384007;19;20414;-74
2023/12/15 11:46:44;;;;;;;43.47;16.50;;;13.20;99.90;;;;;;7406143;19;20006;-74
2023/12/15 11:49:24;;;;;;;36.08;16.25;;;13.20;99.90;;;;;;7383444;19;20078;-75
2023/12/15 11:51:53;;;;;;;36.72;16.95;;;13.30;99.90;;;;;;7383088;19;20014;-75
2023/12/15 11:54:23;;;;;;;30.48;15.88;;;13.40;99.90;;;;;;7383033;19;20012;-74
2023/12/15 11:56:52;;;;;;;29.25;14.80;;;13.50;99.90;;;;;;7384238;19;20409;-74
2023/12/15 11:59:23;;;;;;;31.02;15.85;;;13.50;99.90;;;;;;7382312;19;20076;-73
2023/12/15 12:01:52;;;;;;;35.10;14.45;;;13.50;99.90;;;;;;7406495;19;20019;-74
2023/12/15 12:04:21;;;;;;;33.35;16.08;;;13.50;99.90;;;;;;7385706;19;20011;-75
2023/12/15 12:06:49;;;;;;;36.10;14.88;;;13.50;99.90;;;;;;7385697;19;20145;-75
2023/12/15 12:09:18;;;;;;;25.77;12.50;;;13.60;99.90;;;;;;7386644;19;20010;-73
2023/12/15 12:11:48;;;;;;;29.73;13.10;;;13.40;99.90;;;;;;7384264;19;20003;-75
2023/12/15 12:14:18;;;;;;;24.55;12.60;;;13.40;99.90;;;;;;7384291;19;20019;-74
2023/12/15 12:16:55;;;;;;;28.52;14.15;;;13.30;99.90;;;;;;7404924;19;20084;-73
2023/12/15 12:19:24;;;;;;;29.52;13.60;;;13.20;99.90;;;;;;7380877;19;20007;-74
2023/12/15 12:21:56;;;;;;;26.60;13.98;;;13.20;99.90;;;;;;7383632;19;20108;-74
2023/12/15 12:24:29;;;;;;;32.85;13.73;;;13.20;99.90;;;;;;7382945;19;20321;-74
2023/12/15 12:26:58;;;;;;;34.10;14.25;;;13.30;99.90;;;;;;7383200;19;20009;-74
2023/12/15 12:29:27;;;;;;;28.77;12.27;;;13.40;99.90;;;;;;7382935;19;20296;-73
2023/12/15 12:31:58;;;;;;;23.60;11.18;;;13.50;99.90;;;;;;7404284;19;20006;-74
2023/12/15 12:34:27;;;;;;;28.83;10.80;;;13.40;99.90;;;;;;7382050;19;20006;-73
2023/12/15 12:36:55;;;;;;;25.85;10.15;;;13.40;99.90;;;;;;7382516;19;20026;-74
2023/12/15 12:39:27;;;;;;;25.27;11.82;;;13.40;99.90;;;;;;7381687;19;20082;-73
2023/12/15 12:41:55;;;;;;;33.35;11.40;;;13.50;99.90;;;;;;7382670;19;20002;-74